createdAt,value
2018-11-23T00:01:17.721Z,32.53
2018-11-23T00:03:21.389Z,34.83
2018-11-23T00:05:25.285Z,32.93
2018-11-23T00:07:28.732Z,33.95
2018-11-23T00:09:31.921Z,34.78
2018-11-23T00:11:35.130Z,32.87
2018-11-23T00:13:38.783Z,34.27
2018-11-23T00:15:42.321Z,34.23
2018-11-23T00:17:46.136Z,33.15
2018-11-23T00:19:49.348Z,33.60
2018-11-23T00:21:52.833Z,34.25
2018-11-23T00:23:56.334Z,34.00
2018-11-23T00:26:00.338Z,33.25
2018-11-23T00:28:03.891Z,34.23
2018-11-23T00:30:09.476Z,34.03
2018-11-23T00:32:13.157Z,34.65
2018-11-23T00:34:16.546Z,32.58
2018-11-23T00:36:19.737Z,33.70
2018-11-23T00:38:23.338Z,33.90
2018-11-23T00:40:32.432Z,34.53
2018-11-23T00:42:35.979Z,33.10
2018-11-23T00:44:39.493Z,35.28
2018-11-23T00:46:43.049Z,34.70
2018-11-23T00:48:46.540Z,32.73
2018-11-23T00:50:50.080Z,35.45
2018-11-23T00:52:54.685Z,35.50
2018-11-23T00:54:58.257Z,33.15
2018-11-23T00:57:01.913Z,33.95
2018-11-23T00:59:05.353Z,36.42
2018-11-23T01:01:08.823Z,33.40
2018-11-23T01:03:12.544Z,33.28
2018-11-23T01:05:17.416Z,35.60
2018-11-23T01:07:21.234Z,35.03
2018-11-23T01:09:24.449Z,32.45
2018-11-23T01:11:28.253Z,34.00
2018-11-23T01:13:31.717Z,34.23
2018-11-23T01:15:35.563Z,33.63
2018-11-23T01:17:39.395Z,34.38
2018-11-23T01:19:42.850Z,33.65
2018-11-23T01:21:46.404Z,30.65
2018-11-23T01:23:49.885Z,33.40
2018-11-23T01:25:53.129Z,32.77
2018-11-23T01:27:57.179Z,34.48
2018-11-23T01:30:00.641Z,34.30
2018-11-23T01:32:04.473Z,34.67
2018-11-23T01:34:08.287Z,35.33
2018-11-23T01:36:11.744Z,33.58
2018-11-23T01:38:15.203Z,33.20
2018-11-23T01:40:22.904Z,32.85
2018-11-23T01:42:26.199Z,31.30
2018-11-23T01:44:29.670Z,33.73
2018-11-23T01:46:33.189Z,34.63
2018-11-23T01:48:36.669Z,35.25
2018-11-23T01:50:40.181Z,34.55
2018-11-23T01:52:45.041Z,36.00
2018-11-23T01:54:48.520Z,33.75
2018-11-23T01:56:51.997Z,33.63
2018-11-23T01:58:55.506Z,33.65
2018-11-23T02:00:58.928Z,33.98
2018-11-23T02:03:02.709Z,34.85
2018-11-23T02:05:06.949Z,34.50
2018-11-23T02:07:10.422Z,33.50
2018-11-23T02:09:13.903Z,35.28
2018-11-23T02:11:17.769Z,33.98
2018-11-23T02:13:21.218Z,32.95
2018-11-23T02:15:24.736Z,34.60
2018-11-23T02:17:28.181Z,33.78
2018-11-23T02:19:31.570Z,35.38
2018-11-23T02:21:35.043Z,32.70
2018-11-23T02:23:38.485Z,33.92
2018-11-23T02:25:42.147Z,35.98
2018-11-23T02:27:45.937Z,34.65
2018-11-23T02:29:49.830Z,34.65
2018-11-23T02:31:53.297Z,34.27
2018-11-23T02:33:56.749Z,34.55
2018-11-23T02:36:00.566Z,34.20
2018-11-23T02:38:04.033Z,33.95
2018-11-23T02:40:08.381Z,32.95
2018-11-23T02:42:11.849Z,34.78
2018-11-23T02:44:15.045Z,35.52
2018-11-23T02:46:18.349Z,34.30
2018-11-23T02:48:21.826Z,34.70
2018-11-23T02:50:25.635Z,34.25
2018-11-23T02:52:29.140Z,34.23
2018-11-23T02:54:32.322Z,33.83
2018-11-23T02:56:45.141Z,35.67
2018-11-23T02:58:48.597Z,35.77
2018-11-23T03:00:52.331Z,32.85
2018-11-23T03:02:55.517Z,35.70
2018-11-23T03:04:58.689Z,36.33
2018-11-23T03:07:02.272Z,35.25
2018-11-23T03:09:08.021Z,36.45
2018-11-23T03:11:11.557Z,33.78
2018-11-23T03:13:14.773Z,34.65
2018-11-23T03:15:19.510Z,36.00
2018-11-23T03:17:24.190Z,35.58
2018-11-23T03:19:27.858Z,34.27
2018-11-23T03:21:31.060Z,33.30
2018-11-23T03:23:34.525Z,33.75
2018-11-23T03:25:38.353Z,33.65
2018-11-23T03:27:42.228Z,34.48
2018-11-23T03:29:45.739Z,35.60
2018-11-23T03:31:49.480Z,33.73
2018-11-23T03:33:53.203Z,33.85
2018-11-23T03:35:56.874Z,32.95
2018-11-23T03:38:00.365Z,36.13
2018-11-23T03:40:03.614Z,33.90
2018-11-23T03:42:07.555Z,33.18
2018-11-23T03:44:11.213Z,34.63
2018-11-23T03:46:14.732Z,33.60
2018-11-23T03:48:18.361Z,34.88
2018-11-23T03:50:22.085Z,34.53
2018-11-23T03:52:25.587Z,34.60
2018-11-23T03:54:30.121Z,34.20
2018-11-23T03:56:34.014Z,35.03
2018-11-23T03:58:37.507Z,34.03
2018-11-23T04:00:40.982Z,34.53
2018-11-23T04:02:45.051Z,34.20
2018-11-23T04:04:48.504Z,33.08
2018-11-23T04:06:52.326Z,33.18
2018-11-23T04:08:56.157Z,34.98
2018-11-23T04:10:59.721Z,32.63
2018-11-23T04:13:03.177Z,33.88
2018-11-23T04:15:07.103Z,34.23
2018-11-23T04:17:10.869Z,32.58
2018-11-23T04:19:14.414Z,35.05
2018-11-23T04:21:17.913Z,34.30
2018-11-23T04:23:21.402Z,32.42
2018-11-23T04:25:24.863Z,33.25
2018-11-23T04:27:28.720Z,34.03
2018-11-23T04:29:32.177Z,32.83
2018-11-23T04:31:35.677Z,33.23
2018-11-23T04:33:39.185Z,32.90
2018-11-23T04:35:42.977Z,33.85
2018-11-23T04:37:47.175Z,32.80
2018-11-23T04:39:50.873Z,33.60
2018-11-23T04:41:54.630Z,32.50
2018-11-23T04:43:57.822Z,33.67
2018-11-23T04:46:01.077Z,33.00
2018-11-23T04:48:05.408Z,32.98
2018-11-23T04:50:10.914Z,32.25
2018-11-23T04:52:14.122Z,32.10
2018-11-23T04:54:17.632Z,33.58
2018-11-23T04:56:21.080Z,34.50
2018-11-23T04:58:24.650Z,34.33
2018-11-23T05:00:28.877Z,31.70
2018-11-23T05:02:32.413Z,32.60
2018-11-23T05:04:35.901Z,33.53
2018-11-23T05:06:39.405Z,32.73
2018-11-23T05:08:42.885Z,35.00
2018-11-23T05:10:46.381Z,33.45
2018-11-23T05:12:49.989Z,32.20
2018-11-23T05:14:53.474Z,32.63
2018-11-23T05:16:57.492Z,32.20
2018-11-23T05:19:00.673Z,33.47
2018-11-23T05:21:04.168Z,33.35
2018-11-23T05:23:07.873Z,31.40
2018-11-23T05:25:13.055Z,32.60
2018-11-23T05:27:16.528Z,31.73
2018-11-23T05:29:19.997Z,32.15
2018-11-23T05:31:23.808Z,31.05
2018-11-23T05:33:27.089Z,32.40
2018-11-23T05:35:30.600Z,31.52
2018-11-23T05:37:34.070Z,33.18
2018-11-23T05:39:37.261Z,32.00
2018-11-23T05:41:40.917Z,33.28
2018-11-23T05:43:44.109Z,32.85
2018-11-23T05:45:47.330Z,31.73
2018-11-23T05:47:51.024Z,31.17
2018-11-23T05:49:54.200Z,33.15
2018-11-23T05:51:57.398Z,31.27
2018-11-23T05:54:00.605Z,33.37
2018-11-23T05:56:04.168Z,34.30
2018-11-23T05:58:07.904Z,32.13
2018-11-23T06:00:14.246Z,32.40
2018-11-23T06:02:17.761Z,34.10
2018-11-23T06:04:21.238Z,33.00
2018-11-23T06:06:24.636Z,32.30
2018-11-23T06:08:27.935Z,31.37
2018-11-23T06:10:31.428Z,32.30
2018-11-23T06:12:34.909Z,33.58
2018-11-23T06:14:38.402Z,33.20
2018-11-23T06:16:42.262Z,32.42
2018-11-23T06:18:45.820Z,32.83
2018-11-23T06:20:49.502Z,31.70
2018-11-23T06:22:54.002Z,32.15
2018-11-23T06:24:57.218Z,33.40
2018-11-23T06:27:00.854Z,32.28
2018-11-23T06:29:04.768Z,32.23
2018-11-23T06:31:08.606Z,31.93
2018-11-23T06:33:27.827Z,33.42
2018-11-23T06:35:31.285Z,33.00
2018-11-23T06:37:34.515Z,32.10
2018-11-23T06:39:38.301Z,33.75
2018-11-23T06:41:42.092Z,33.18
2018-11-23T06:43:45.940Z,32.50
2018-11-23T06:45:49.476Z,31.25
2018-11-23T06:47:52.668Z,31.90
2018-11-23T06:49:56.366Z,32.75
2018-11-23T06:51:59.588Z,32.48
2018-11-23T06:54:03.773Z,32.65
2018-11-23T06:56:07.716Z,32.85
2018-11-23T06:58:11.609Z,31.57
2018-11-23T07:00:16.178Z,32.98
2018-11-23T07:02:19.666Z,31.33
2018-11-23T07:04:23.154Z,30.05
2018-11-23T07:06:26.665Z,31.57
2018-11-23T07:08:30.453Z,30.08
2018-11-23T07:10:34.214Z,32.30
2018-11-23T07:12:38.504Z,30.92
2018-11-23T07:14:42.149Z,33.40
2018-11-23T07:16:45.934Z,31.02
2018-11-23T07:18:49.465Z,31.68
2018-11-23T07:20:53.860Z,30.52
2018-11-23T07:22:56.613Z,30.27
2018-11-23T07:25:00.171Z,31.15
2018-11-23T07:27:03.644Z,29.80
2018-11-23T07:29:07.501Z,30.68
2018-11-23T07:31:11.255Z,29.18
2018-11-23T07:33:14.769Z,30.68
2018-11-23T07:35:18.305Z,29.80
2018-11-23T07:37:21.949Z,29.75
2018-11-23T07:39:36.754Z,30.37
2018-11-23T07:41:51.473Z,31.67
2018-11-23T07:43:54.801Z,31.30
2018-11-23T07:45:58.384Z,30.30
2018-11-23T07:48:02.020Z,29.75
2018-11-23T07:50:07.562Z,30.02
2018-11-23T07:52:11.040Z,30.88
2018-11-23T07:54:14.307Z,30.40
2018-11-23T07:56:17.922Z,29.25
2018-11-23T07:58:21.421Z,30.65
2018-11-23T08:00:26.549Z,27.45
2018-11-23T08:02:30.357Z,27.93
2018-11-23T08:04:34.473Z,29.50
2018-11-23T08:06:37.934Z,30.43
2018-11-23T08:08:41.429Z,30.35
2018-11-23T08:10:43.882Z,29.67
2018-11-23T08:12:49.273Z,28.25
2018-11-23T08:14:53.077Z,28.38
2018-11-23T08:16:56.979Z,28.77
2018-11-23T08:19:00.702Z,29.52
2018-11-23T08:21:04.251Z,30.62
2018-11-23T08:23:08.605Z,31.42
2018-11-23T08:25:13.964Z,31.95
2018-11-23T08:27:18.053Z,31.17
2018-11-23T08:29:21.865Z,29.40
2018-11-23T08:31:25.533Z,30.08
2018-11-23T08:33:29.106Z,28.17
2018-11-23T08:35:32.399Z,27.22
2018-11-23T08:37:36.518Z,28.40
2018-11-23T08:39:40.395Z,26.95
2018-11-23T08:41:43.916Z,28.40
2018-11-23T08:43:47.737Z,26.87
2018-11-23T08:45:51.229Z,26.95
2018-11-23T08:47:54.941Z,26.52
2018-11-23T08:49:59.025Z,26.73
2018-11-23T08:52:03.615Z,27.20
2018-11-23T08:54:07.111Z,28.63
2018-11-23T08:56:10.667Z,27.58
2018-11-23T08:58:14.426Z,28.45
2018-11-23T09:00:21.954Z,27.52
2018-11-23T09:02:25.217Z,29.63
2018-11-23T09:04:29.637Z,27.98
2018-11-23T09:06:32.320Z,28.23
2018-11-23T09:08:36.111Z,27.00
2018-11-23T09:10:39.322Z,27.42
2018-11-23T09:12:43.845Z,28.35
2018-11-23T09:14:47.692Z,27.55
2018-11-23T09:16:51.247Z,25.95
2018-11-23T09:18:54.793Z,27.65
2018-11-23T09:20:59.041Z,28.00
2018-11-23T09:23:02.542Z,28.45
2018-11-23T09:25:09.069Z,27.22
2018-11-23T09:27:12.646Z,27.80
2018-11-23T09:29:15.830Z,27.23
2018-11-23T09:31:19.278Z,28.00
2018-11-23T09:33:22.762Z,26.45
2018-11-23T09:35:27.938Z,26.60
2018-11-23T09:37:31.114Z,28.40
2018-11-23T09:39:34.605Z,26.17
2018-11-23T09:41:38.086Z,26.00
2018-11-23T09:43:41.874Z,27.03
2018-11-23T09:45:45.346Z,26.30
2018-11-23T09:47:50.532Z,28.00
2018-11-23T09:49:54.334Z,26.93
2018-11-23T09:51:58.034Z,27.20
2018-11-23T09:54:01.859Z,26.62
2018-11-23T09:56:05.371Z,26.85
2018-11-23T09:58:09.006Z,27.40
2018-11-23T10:00:15.098Z,26.50
2018-11-23T10:02:18.609Z,26.65
2018-11-23T10:04:21.851Z,26.60
2018-11-23T10:06:25.490Z,26.27
2018-11-23T10:08:29.118Z,27.00
2018-11-23T10:10:32.604Z,26.80
2018-11-23T10:12:35.804Z,28.47
2018-11-23T10:14:39.512Z,27.82
2018-11-23T10:16:43.010Z,27.10
2018-11-23T10:18:46.505Z,26.70
2018-11-23T10:20:50.509Z,27.90
2018-11-23T10:22:54.445Z,26.50
2018-11-23T10:24:57.961Z,27.93
2018-11-23T10:27:01.520Z,27.45
2018-11-23T10:29:05.438Z,26.62
2018-11-23T10:31:08.951Z,28.65
2018-11-23T10:33:12.618Z,26.80
2018-11-23T10:35:16.190Z,26.50
2018-11-23T10:37:19.555Z,25.15
2018-11-23T10:39:23.330Z,26.17
2018-11-23T10:41:27.138Z,26.65
2018-11-23T10:43:30.620Z,26.30
2018-11-23T10:45:34.908Z,26.82
2018-11-23T10:47:38.242Z,27.53
2018-11-23T10:49:41.829Z,26.02
2018-11-23T10:51:45.002Z,27.30
2018-11-23T10:53:48.600Z,26.77
2018-11-23T10:55:52.409Z,27.80
2018-11-23T10:57:56.213Z,25.10
2018-11-23T10:59:59.440Z,26.17
2018-11-23T11:02:04.645Z,25.43
2018-11-23T11:04:13.773Z,25.50
2018-11-23T11:06:22.866Z,27.67
2018-11-23T11:08:26.398Z,24.90
2018-11-23T11:10:29.892Z,25.45
2018-11-23T11:12:33.422Z,25.68
2018-11-23T11:14:36.845Z,26.80
2018-11-23T11:16:40.843Z,25.52
2018-11-23T11:18:44.533Z,26.40
2018-11-23T11:20:48.034Z,26.40
2018-11-23T11:22:51.523Z,26.73
2018-11-23T11:24:55.022Z,25.52
2018-11-23T11:26:58.560Z,25.80
2018-11-23T11:29:02.533Z,25.72
2018-11-23T11:31:07.082Z,25.60
2018-11-23T11:33:10.543Z,25.20
2018-11-23T11:35:14.193Z,26.12
2018-11-23T11:37:17.401Z,25.05
2018-11-23T11:39:20.983Z,25.53
2018-11-23T11:41:24.462Z,26.25
2018-11-23T11:43:27.817Z,25.52
2018-11-23T11:45:31.669Z,25.08
2018-11-23T11:47:35.217Z,24.83
2018-11-23T11:49:39.040Z,25.45
2018-11-23T11:51:42.517Z,25.12
2018-11-23T11:53:46.002Z,24.87
2018-11-23T11:55:49.502Z,25.50
2018-11-23T11:57:53.409Z,26.52
2018-11-23T11:59:56.881Z,26.52
2018-11-23T12:02:00.580Z,26.07
2018-11-23T12:04:04.101Z,25.68
2018-11-23T12:06:07.913Z,26.40
2018-11-23T12:08:11.377Z,25.35
2018-11-23T12:10:17.085Z,24.98
2018-11-23T12:12:20.655Z,24.87
2018-11-23T12:14:24.307Z,26.30
2018-11-23T12:16:27.777Z,25.80
2018-11-23T12:18:31.465Z,26.68
2018-11-23T12:20:35.268Z,25.82
2018-11-23T12:22:39.097Z,25.80
2018-11-23T12:24:43.459Z,27.13
2018-11-23T12:26:46.907Z,25.62
2018-11-23T12:28:50.209Z,26.30
2018-11-23T12:30:53.404Z,25.23
2018-11-23T12:32:56.874Z,27.42
2018-11-23T12:35:00.333Z,24.25
2018-11-23T12:37:04.301Z,25.92
2018-11-23T12:39:08.315Z,26.37
2018-11-23T12:41:11.565Z,26.33
2018-11-23T12:43:15.205Z,26.62
2018-11-23T12:45:20.069Z,25.95
2018-11-23T12:47:23.705Z,26.23
2018-11-23T12:49:27.233Z,26.40
2018-11-23T12:51:30.736Z,25.55
2018-11-23T12:53:34.231Z,26.57
2018-11-23T12:55:37.751Z,27.20
2018-11-23T12:57:41.774Z,25.17
2018-11-23T12:59:45.557Z,25.85
2018-11-23T13:01:49.042Z,26.75
2018-11-23T13:03:52.873Z,25.92
2018-11-23T13:05:56.709Z,25.35
2018-11-23T13:08:02.893Z,25.77
2018-11-23T13:10:07.333Z,27.07
2018-11-23T13:12:10.801Z,27.20
2018-11-23T13:14:14.013Z,26.27
2018-11-23T13:16:17.509Z,25.27
2018-11-23T13:18:20.985Z,26.48
2018-11-23T13:20:24.648Z,26.68
2018-11-23T13:22:28.100Z,24.30
2018-11-23T13:24:31.899Z,26.45
2018-11-23T13:26:35.361Z,26.30
2018-11-23T13:28:38.750Z,27.60
2018-11-23T13:30:44.505Z,26.27
2018-11-23T13:32:48.081Z,24.67
2018-11-23T13:34:51.893Z,25.65
2018-11-23T13:36:55.378Z,26.82
2018-11-23T13:38:58.841Z,26.42
2018-11-23T13:41:02.309Z,25.23
2018-11-23T13:43:05.951Z,26.25
2018-11-23T13:45:11.349Z,26.35
2018-11-23T13:47:14.915Z,25.45
2018-11-23T13:49:18.102Z,26.55
2018-11-23T13:51:21.289Z,26.97
2018-11-23T13:53:24.817Z,26.95
2018-11-23T13:55:28.272Z,26.80
2018-11-23T13:57:32.081Z,25.20
2018-11-23T13:59:35.607Z,26.10
2018-11-23T14:01:39.069Z,26.73
2018-11-23T14:03:42.721Z,25.48
2018-11-23T14:05:46.265Z,26.48
2018-11-23T14:07:51.300Z,27.30
2018-11-23T14:09:55.131Z,27.07
2018-11-23T14:11:58.989Z,27.37
2018-11-23T14:14:02.503Z,27.27
2018-11-23T14:16:07.245Z,26.93
2018-11-23T14:18:10.725Z,26.75
2018-11-23T14:20:15.373Z,28.25
2018-11-23T14:22:18.868Z,27.95
2018-11-23T14:24:22.751Z,27.22
2018-11-23T14:26:26.237Z,26.65
2018-11-23T14:28:30.097Z,28.25
2018-11-23T14:30:34.484Z,27.35
2018-11-23T14:32:38.219Z,28.50
2018-11-23T14:34:41.857Z,27.95
2018-11-23T14:36:45.654Z,28.17
2018-11-23T14:38:49.187Z,28.47
2018-11-23T14:40:53.476Z,28.38
2018-11-23T14:42:57.409Z,27.50
2018-11-23T14:45:00.926Z,29.42
2018-11-23T14:47:04.145Z,28.13
2018-11-23T14:49:07.668Z,28.98
2018-11-23T14:51:11.449Z,27.50
2018-11-23T14:53:15.229Z,28.20
2018-11-23T14:55:19.186Z,28.20
2018-11-23T14:57:22.943Z,29.45
2018-11-23T14:59:26.757Z,28.02
2018-11-23T15:01:30.224Z,28.55
2018-11-23T15:03:33.421Z,30.00
2018-11-23T15:05:37.197Z,30.02
2018-11-23T15:07:40.641Z,29.98
2018-11-23T15:09:43.901Z,29.77
2018-11-23T15:11:47.601Z,28.75
2018-11-23T15:13:50.893Z,28.40
2018-11-23T15:15:54.081Z,30.00
2018-11-23T15:17:58.425Z,28.10
2018-11-23T15:20:01.915Z,30.30
2018-11-23T15:22:05.431Z,28.35
2018-11-23T15:24:09.595Z,28.65
2018-11-23T15:26:13.222Z,30.02
2018-11-23T15:28:16.901Z,28.30
2018-11-23T15:30:23.517Z,28.45
2018-11-23T15:32:27.319Z,29.12
2018-11-23T15:34:30.528Z,28.52
2018-11-23T15:36:34.054Z,29.10
2018-11-23T15:38:37.768Z,30.00
2018-11-23T15:40:41.901Z,29.98
2018-11-23T15:42:46.221Z,29.87
2018-11-23T15:44:50.008Z,29.45
2018-11-23T15:46:53.572Z,30.27
2018-11-23T15:48:57.082Z,29.07
2018-11-23T15:51:07.831Z,29.42
2018-11-23T15:53:12.805Z,29.57
2018-11-23T15:55:21.941Z,29.70
2018-11-23T15:57:25.493Z,30.40
2018-11-23T15:59:29.000Z,30.40
2018-11-23T16:01:32.555Z,29.85
2018-11-23T16:03:36.077Z,30.08
2018-11-23T16:05:39.947Z,30.37
2018-11-23T16:07:43.811Z,31.73
2018-11-23T16:09:47.453Z,32.13
2018-11-23T16:11:51.313Z,30.27
2018-11-23T16:13:55.084Z,30.70
2018-11-23T16:15:58.585Z,30.02
2018-11-23T16:18:03.041Z,31.00
2018-11-23T16:20:11.244Z,30.62
2018-11-23T16:22:15.070Z,32.80
2018-11-23T16:24:18.264Z,30.50
2018-11-23T16:26:22.085Z,32.53
2018-11-23T16:28:25.517Z,32.48
2018-11-23T16:30:30.677Z,32.60
2018-11-23T16:32:34.321Z,32.45
2018-11-23T16:34:38.421Z,29.12
2018-11-23T16:36:42.107Z,29.20
2018-11-23T16:38:45.617Z,30.37
2018-11-23T16:40:52.425Z,32.50
2018-11-23T16:42:56.306Z,30.77
2018-11-23T16:44:59.785Z,31.73
2018-11-23T16:47:02.991Z,30.80
2018-11-23T16:49:06.448Z,30.70
2018-11-23T16:51:10.082Z,29.95
2018-11-23T16:53:13.730Z,31.07
2018-11-23T16:55:18.453Z,31.48
2018-11-23T16:57:21.935Z,30.95
2018-11-23T16:59:25.488Z,32.65
2018-11-23T17:01:29.303Z,32.40
2018-11-23T17:03:32.983Z,31.90
2018-11-23T17:05:43.837Z,32.20
2018-11-23T17:07:47.863Z,32.40
2018-11-23T17:09:51.506Z,33.23
2018-11-23T17:11:54.685Z,31.27
2018-11-23T17:13:58.153Z,32.67
2018-11-23T17:16:01.655Z,33.13
2018-11-23T17:18:05.274Z,35.03
2018-11-23T17:20:11.296Z,33.02
2018-11-23T17:22:14.826Z,34.83
2018-11-23T17:24:18.755Z,35.13
2018-11-23T17:26:22.417Z,33.92
2018-11-23T17:28:26.029Z,32.15
2018-11-23T17:30:30.775Z,33.10
2018-11-23T17:32:34.526Z,33.53
2018-11-23T17:34:37.717Z,34.33
2018-11-23T17:36:41.212Z,33.42
2018-11-23T17:38:47.693Z,32.80
2018-11-23T17:40:48.578Z,33.35
2018-11-23T17:42:51.873Z,32.73
2018-11-23T17:44:55.097Z,33.50
2018-11-23T17:46:58.560Z,32.60
2018-11-23T17:49:02.010Z,31.35
2018-11-23T17:51:05.809Z,31.87
2018-11-23T17:53:09.169Z,31.25
2018-11-23T17:55:13.013Z,31.93
2018-11-23T17:57:16.481Z,30.48
2018-11-23T17:59:19.978Z,29.92
2018-11-23T18:01:23.783Z,30.52
2018-11-23T18:03:27.438Z,28.83
2018-11-23T18:05:32.061Z,30.77
2018-11-23T18:07:35.513Z,30.30
2018-11-23T18:09:39.662Z,31.82
2018-11-23T18:11:43.492Z,31.07
2018-11-23T18:13:47.338Z,31.05
2018-11-23T18:15:50.975Z,31.05
2018-11-23T18:17:55.924Z,28.60
2018-11-23T18:19:59.130Z,31.17
2018-11-23T18:22:03.231Z,30.43
2018-11-23T18:24:07.025Z,30.50
2018-11-23T18:26:10.592Z,30.02
2018-11-23T18:28:14.057Z,29.85
2018-11-23T18:30:17.549Z,30.40
2018-11-23T18:32:21.263Z,30.70
2018-11-23T18:34:24.795Z,29.23
2018-11-23T18:36:28.407Z,31.70
2018-11-23T18:38:31.909Z,29.92
2018-11-23T18:40:37.376Z,29.30
2018-11-23T18:42:39.265Z,30.30
2018-11-23T18:44:42.736Z,27.90
2018-11-23T18:46:46.561Z,28.75
2018-11-23T18:48:50.725Z,29.57
2018-11-23T18:50:54.005Z,28.40
2018-11-23T18:52:57.790Z,29.98
2018-11-23T18:55:01.274Z,30.00
2018-11-23T18:57:05.310Z,30.37
2018-11-23T18:59:08.540Z,28.62
2018-11-23T19:01:13.015Z,29.67
2018-11-23T19:03:16.839Z,28.42
2018-11-23T19:05:23.970Z,28.83
2018-11-23T19:07:27.647Z,27.10
2018-11-23T19:09:31.127Z,28.10
2018-11-23T19:11:34.594Z,27.98
2018-11-23T19:13:38.043Z,28.65
2018-11-23T19:15:41.832Z,27.30
2018-11-23T19:17:45.608Z,27.20
2018-11-23T19:19:49.423Z,28.83
2018-11-23T19:21:53.233Z,26.97
2018-11-23T19:23:56.409Z,27.98
2018-11-23T19:26:00.157Z,28.00
2018-11-23T19:28:03.980Z,25.70
2018-11-23T19:30:09.717Z,25.85
2018-11-23T19:32:13.213Z,26.93
2018-11-23T19:34:16.681Z,26.77
2018-11-23T19:36:19.877Z,27.20
2018-11-23T19:38:23.109Z,27.10
2018-11-23T19:40:26.662Z,26.65
2018-11-23T19:42:30.116Z,25.10
2018-11-23T19:44:33.645Z,24.30
2018-11-23T19:46:43.924Z,26.73
2018-11-23T19:48:47.136Z,25.05
2018-11-23T19:50:50.333Z,25.55
2018-11-23T19:52:53.869Z,25.03
2018-11-23T19:54:57.316Z,25.80
2018-11-23T19:57:01.002Z,26.70
2018-11-23T19:59:04.826Z,24.87
2018-11-23T20:01:08.298Z,25.72
2018-11-23T20:03:12.190Z,26.52
2018-11-23T20:05:15.751Z,25.43
2018-11-23T20:07:19.188Z,25.20
2018-11-23T20:09:23.009Z,24.37
2018-11-23T20:11:26.514Z,26.50
2018-11-23T20:13:30.334Z,24.55
2018-11-23T20:15:33.817Z,25.40
2018-11-23T20:17:41.533Z,25.25
2018-11-23T20:19:41.264Z,25.97
2018-11-23T20:21:45.142Z,24.82
2018-11-23T20:23:48.331Z,24.07
2018-11-23T20:25:52.134Z,25.97
2018-11-23T20:27:55.889Z,24.50
2018-11-23T20:29:59.513Z,23.80
2018-11-23T20:32:02.993Z,26.35
2018-11-23T20:34:06.618Z,26.45
2018-11-23T20:36:09.793Z,26.53
2018-11-23T20:38:13.307Z,24.37
2018-11-23T20:40:22.418Z,25.27
2018-11-23T20:42:25.881Z,25.60
2018-11-23T20:44:29.075Z,26.53
2018-11-23T20:46:32.599Z,24.92
2018-11-23T20:48:36.093Z,25.88
2018-11-23T20:50:39.269Z,25.30
2018-11-23T20:52:42.754Z,25.45
2018-11-23T20:54:46.517Z,27.37
2018-11-23T20:56:50.182Z,27.55
2018-11-23T20:58:53.491Z,25.23
2018-11-23T21:00:57.307Z,25.02
2018-11-23T21:03:00.518Z,24.90
2018-11-23T21:05:04.436Z,25.40
2018-11-23T21:07:07.929Z,25.00
2018-11-23T21:09:11.445Z,24.90
2018-11-23T21:11:14.919Z,24.90
2018-11-23T21:13:18.684Z,25.45
2018-11-23T21:15:30.821Z,25.32
2018-11-23T21:17:34.686Z,25.23
2018-11-23T21:19:38.402Z,25.43
2018-11-23T21:21:41.885Z,25.25
2018-11-23T21:23:45.385Z,24.05
2018-11-23T21:25:49.210Z,26.87
2018-11-23T21:27:53.180Z,24.20
2018-11-23T21:29:57.129Z,25.40
2018-11-23T21:32:00.893Z,25.20
2018-11-23T21:34:05.239Z,24.98
2018-11-23T21:36:08.716Z,26.23
2018-11-23T21:38:11.936Z,26.40
2018-11-23T21:40:16.462Z,25.15
2018-11-23T21:42:19.928Z,27.50
2018-11-23T21:44:23.311Z,25.60
2018-11-23T21:46:26.781Z,25.27
2018-11-23T21:48:29.961Z,25.25
2018-11-23T21:50:33.196Z,24.55
2018-11-23T21:52:36.678Z,21.90
2018-11-23T21:54:40.143Z,22.05
2018-11-23T21:56:44.153Z,20.40
2018-11-23T21:58:47.340Z,22.40
2018-11-23T22:00:50.548Z,24.30
2018-11-23T22:02:54.884Z,25.05
2018-11-23T22:04:58.352Z,23.75
2018-11-23T22:07:01.546Z,23.83
2018-11-23T22:09:07.417Z,25.10
2018-11-23T22:11:10.908Z,24.93
2018-11-23T22:13:14.445Z,23.90
2018-11-23T22:15:22.345Z,23.45
2018-11-23T22:17:25.945Z,22.83
2018-11-23T22:19:29.397Z,23.00
2018-11-23T22:21:32.985Z,23.62
2018-11-23T22:23:36.210Z,24.33
2018-11-23T22:25:39.869Z,24.10
2018-11-23T22:27:43.276Z,22.80
2018-11-23T22:29:46.798Z,23.25
2018-11-23T22:31:50.612Z,22.42
2018-11-23T22:33:54.433Z,20.10
2018-11-23T22:35:57.909Z,19.40
2018-11-23T22:38:01.710Z,19.27
2018-11-23T22:40:09.568Z,19.48
2018-11-23T22:42:12.761Z,18.17
2018-11-23T22:44:16.273Z,17.98
2018-11-23T22:46:19.729Z,20.92
2018-11-23T22:48:22.933Z,29.93
2018-11-23T22:50:27.065Z,22.00
2018-11-23T22:52:30.545Z,20.88
2018-11-23T22:54:34.019Z,21.10
2018-11-23T22:56:37.572Z,22.70
2018-11-23T22:58:41.401Z,21.85
2018-11-23T23:00:45.440Z,23.65
2018-11-23T23:02:49.607Z,21.97
2018-11-23T23:04:53.314Z,21.60
2018-11-23T23:06:56.968Z,22.22
2018-11-23T23:09:00.438Z,22.82
2018-11-23T23:11:04.011Z,32.30
2018-11-23T23:13:07.825Z,25.77
2018-11-23T23:15:11.836Z,22.77
2018-11-23T23:17:15.286Z,21.37
2018-11-23T23:19:18.748Z,21.37
2018-11-23T23:21:22.732Z,21.52
2018-11-23T23:23:26.309Z,22.05
2018-11-23T23:25:29.773Z,21.73
2018-11-23T23:27:33.580Z,23.20
2018-11-23T23:29:37.085Z,20.72
2018-11-23T23:31:40.376Z,21.57
2018-11-23T23:33:43.844Z,22.67
2018-11-23T23:35:47.533Z,21.73
2018-11-23T23:37:50.997Z,23.32
2018-11-23T23:39:54.437Z,21.87
2018-11-23T23:41:57.853Z,22.10
2018-11-23T23:44:01.348Z,22.30
2018-11-23T23:46:05.199Z,22.98
2018-11-23T23:48:09.031Z,23.30
2018-11-23T23:50:16.667Z,22.60
2018-11-23T23:52:20.246Z,22.80
2018-11-23T23:54:23.752Z,24.12
2018-11-23T23:56:27.259Z,23.80
2018-11-23T23:58:30.738Z,24.00
